NCAR-RAP Real-Time Weather Data

Output produced by METARs form (23 January 2018  15:34 UTC)
found at http://weather.rap.ucar.edu/surface/
 
ROMY 231100Z 05009KT 9999 SCT020 BKN/// 19/15 Q1016
ROMY 231000Z 05009KT 9999 FEW023 SCT100 19/15 Q1015
ROMY 230900Z 05009KT 9999 FEW025 SCT100 19/15 Q1015
ROMY 230800Z 06011KT 9999 FEW025 SCT100 21/16 Q1014
ROMY 230700Z 05010KT 9999 FEW023 SCT100 21/15 Q1014
ROMY 230600Z 04011KT 9999 FEW023 SCT040 BKN110 22/16 Q1014
ROMY 230500Z 06010KT 9999 FEW025 BKN040 22/15 Q1014
ROMY 230400Z 06011KT 9999 FEW024 BKN110 22/15 Q1014
ROMY 230300Z 06012KT 9999 FEW026 SCT/// 22/15 Q1015
ROMY 230200Z 06011KT 9999 FEW027 BKN045 21/14 Q1016
ROMY 230100Z 05009KT 9999 FEW026 BKN042 20/15 Q1016
ROMY 230000Z 05007KT 9999 SCT030 BKN046 19/14 Q1016
ROMY 222300Z 05007KT 9999 SCT030 BKN047 BKN090 19/13 Q1016
ROMY 222200Z 05010KT 9999 SCT030 BKN047 19/13 Q1015
ROMY 222130Z 04010KT 9999 FEW030 BKN048 19/14 Q1015
ROMY 221100Z 03012KT 360V070 9999 VCSH SCT026 BKN110 18/14 Q1015
ROMY 221000Z 03010KT 9999 -SHRA SCT030 BKN090 17/14 Q1013
ROMY 220900Z 03013KT 9999 -SHRA FEW025 BKN030 BKN100 18/15 Q1013
ROMY 220800Z 03014KT 9999 FEW022 BKN100 19/14 Q1012
ROMY 220700Z 02012KT 9999 FEW020 SCT030 BKN100 20/15 Q1011
ROMY 220600Z 02008KT 9999 SCT018 BKN090 19/16 Q1012
ROMY 220500Z 01012KT 9999 FEW017 SCT023 BKN028 20/16 Q1011
ROMY 220400Z 36013KT 9999 SCT015 BKN025 BKN080 20/16 Q1012
ROMY 220300Z 35015G25KT 9999 VCSH FEW011 BKN015 BKN020 20/17 Q1013
ROMY 220200Z 35016G26KT 9999 -SHRA FEW008 BKN015 BKN025 21/19 Q1013
ROMY 220100Z 34010G22KT 9999 -SHRA FEW005 SCT010 BKN015 21/20 Q1012
ROMY 220030Z 32012KT 8000 -SHRA FEW003 SCT005 BKN012 FEW015TCU 22/21 Q1012 RMK 1ST003 3ST005 6CU012 1TCU015 A2990 TCU 10KM NE MOV E
ROMY 220013Z 29004KT 210V350 4500 SHRA BR FEW003 SCT005 BKN013 SCT015TCU 21/21 Q1012 RMK 1ST003 4ST005 6CU013 3TCU015 A2989 TCU 5KM E MOV E
ROMY 220006Z VRB04KT 1000 R22///// +SHRA BR FEW003 BKN005 BKN010 SCT012TCU 21/21 Q1012 RMK 1ST003 5ST005 6CU010 3TCU012 A2989 TCU OHD STNR RI++
ROMY 220000Z VRB02KT 1500 R22///// +SHRA BR FEW005 SCT007 BKN010 21/21 Q1012
ROMY 212341Z VRB01KT 2000 SHRA BR FEW007 SCT015 BKN020 22/21 Q1011 RMK 1ST007 3CU015 6CU020 A2987
ROMY 212330Z 19005KT 2500 SHRA FEW007 SCT018 BKN025 22/21 Q1011 RMK 1ST007 3CU018 6SC025 A2987
ROMY 212300Z 14004KT 080V170 9999 VCSH FEW015 SCT040 BKN070 22/21 Q1010
ROMY 212200Z 13003KT 9999 FEW015 SCT045 BKN130 21/20 Q1011
ROMY 212130Z 16004KT 9999 FEW015 SCT045 BKN080 21/20 Q1011
ROMY 211100Z 10006KT 9999 FEW018 BKN060 21/18 Q1014
ROMY 211000Z 10009KT 9999 FEW020 BKN070 21/18 Q1013
ROMY 210900Z 09009KT 9999 FEW020 BKN070 21/18 Q1013
ROMY 210800Z 07010KT 9999 FEW017 BKN070 22/18 Q1013
ROMY 210700Z 07011KT 9999 FEW017 BKN070 22/18 Q1013
ROMY 210600Z 07011KT 9999 FEW018 BKN070 23/18 Q1013
ROMY 210500Z 06012KT 9999 FEW017 SCT032 BKN080 23/18 Q1014
ROMY 210400Z 07012KT 9999 SCT018 BKN080 22/18 Q1015